createdAt,value
2022-12-16T00:02:15.450Z,69.27
2022-12-16T00:07:21.008Z,69.30
2022-12-16T00:12:26.549Z,69.58
2022-12-16T00:17:32.019Z,68.44
2022-12-16T00:22:37.497Z,69.12
2022-12-16T00:27:42.967Z,69.08
2022-12-16T00:32:48.367Z,68.78
2022-12-16T00:37:54.003Z,68.84
2022-12-16T00:43:00.279Z,68.94
2022-12-16T00:48:06.511Z,69.28
2022-12-16T00:53:11.903Z,69.08
2022-12-16T00:58:17.567Z,68.92
2022-12-16T01:03:23.251Z,69.35
2022-12-16T01:08:28.956Z,69.28
2022-12-16T01:13:35.323Z,69.07
2022-12-16T01:18:41.306Z,68.97
2022-12-16T01:23:48.276Z,68.86
2022-12-16T01:28:54.090Z,69.26
2022-12-16T01:34:00.738Z,69.07
2022-12-16T01:39:06.136Z,68.96
2022-12-16T01:44:17.717Z,69.13
2022-12-16T01:49:28.721Z,69.03
2022-12-16T01:54:37.172Z,68.92
2022-12-16T01:59:45.656Z,68.44
2022-12-16T02:05:09.821Z,68.64
2022-12-16T02:10:15.422Z,68.67
2022-12-16T02:15:40.548Z,68.87
2022-12-16T02:21:09.865Z,68.97
2022-12-16T02:26:21.124Z,68.84
2022-12-16T02:31:35.688Z,68.79
2022-12-16T02:36:47.011Z,68.77
2022-12-16T02:41:55.560Z,68.83
2022-12-16T02:47:01.036Z,68.83
2022-12-16T02:52:07.057Z,68.77
2022-12-16T02:57:49.268Z,68.78
2022-12-16T03:03:10.187Z,68.72
2022-12-16T03:08:27.535Z,68.43
2022-12-16T03:13:35.979Z,68.74
2022-12-16T03:18:44.585Z,68.39
2022-12-16T03:23:53.078Z,68.52
2022-12-16T03:29:10.594Z,68.29
2022-12-16T03:34:31.273Z,68.53
2022-12-16T03:39:39.623Z,68.62
2022-12-16T03:44:46.856Z,68.57
2022-12-16T03:49:52.613Z,68.30
2022-12-16T03:54:58.015Z,67.80
2022-12-16T04:00:03.958Z,68.29
2022-12-16T04:05:11.989Z,68.28
2022-12-16T04:10:17.521Z,68.04
2022-12-16T04:15:41.462Z,68.24
2022-12-16T04:21:08.568Z,68.12
2022-12-16T04:26:14.801Z,67.98
2022-12-16T04:31:20.506Z,67.94
2022-12-16T04:36:43.982Z,67.98
2022-12-16T04:42:09.263Z,68.10
2022-12-16T04:47:32.505Z,67.99
2022-12-16T04:52:55.754Z,68.23
2022-12-16T04:58:21.298Z,68.17
2022-12-16T05:03:45.169Z,68.26
2022-12-16T05:09:08.946Z,68.35
2022-12-16T05:14:32.101Z,68.25
2022-12-16T05:19:55.648Z,68.50
2022-12-16T05:25:19.110Z,68.37
2022-12-16T05:30:42.769Z,68.47
2022-12-16T05:36:05.967Z,68.43
2022-12-16T05:41:29.596Z,68.64
2022-12-16T05:46:53.249Z,68.36
2022-12-16T05:52:17.024Z,67.94
2022-12-16T05:57:40.687Z,68.55
2022-12-16T06:03:04.346Z,69.00
2022-12-16T06:08:28.242Z,68.81
2022-12-16T06:13:51.597Z,68.82
2022-12-16T06:19:15.247Z,69.00
2022-12-16T06:24:38.398Z,69.07
2022-12-16T06:30:01.901Z,69.16
2022-12-16T06:35:25.856Z,69.15
2022-12-16T06:40:49.241Z,68.86
2022-12-16T06:46:12.487Z,69.22
2022-12-16T06:51:35.901Z,69.15
2022-12-16T06:56:59.598Z,69.19
2022-12-16T07:02:22.968Z,69.21
2022-12-16T07:07:39.409Z,69.14
2022-12-16T07:13:02.925Z,68.78
2022-12-16T07:18:26.183Z,69.09
2022-12-16T07:23:49.849Z,69.00
2022-12-16T07:29:14.053Z,69.09
2022-12-16T07:34:41.442Z,68.85
2022-12-16T07:40:02.881Z,68.51
2022-12-16T07:45:27.252Z,69.04
2022-12-16T07:50:50.878Z,69.13
2022-12-16T07:56:14.206Z,68.85
2022-12-16T08:01:38.000Z,68.74
2022-12-16T08:07:01.226Z,68.85
2022-12-16T08:12:24.685Z,69.26
2022-12-16T08:17:48.030Z,69.22
2022-12-16T08:23:11.388Z,68.94
2022-12-16T08:28:34.857Z,69.13
2022-12-16T08:33:57.845Z,69.11
2022-12-16T08:39:21.381Z,69.16
2022-12-16T08:44:44.569Z,69.08
2022-12-16T08:50:08.551Z,68.69
2022-12-16T08:55:32.029Z,69.12
2022-12-16T09:00:51.459Z,68.86
2022-12-16T09:06:18.947Z,68.72
2022-12-16T09:11:42.286Z,69.04
2022-12-16T09:17:07.374Z,68.27
2022-12-16T09:22:30.626Z,68.83
2022-12-16T09:27:53.831Z,68.59
2022-12-16T09:33:19.410Z,68.37
2022-12-16T09:38:42.764Z,68.41
2022-12-16T09:44:15.198Z,68.12
2022-12-16T09:49:44.776Z,67.95
2022-12-16T09:55:08.563Z,67.42
2022-12-16T10:00:37.908Z,67.42
2022-12-16T10:06:15.942Z,67.34
2022-12-16T10:11:42.224Z,67.17
2022-12-16T10:17:11.550Z,66.93
2022-12-16T10:22:43.830Z,67.41
2022-12-16T10:28:09.125Z,67.02
2022-12-16T10:33:35.370Z,66.95
2022-12-16T10:39:05.184Z,67.42
2022-12-16T10:44:40.593Z,67.73
2022-12-16T10:50:04.171Z,68.10
2022-12-16T10:55:33.572Z,67.14
2022-12-16T11:01:08.770Z,67.60
2022-12-16T11:06:37.848Z,67.50
2022-12-16T11:12:01.474Z,67.66
2022-12-16T11:17:39.411Z,68.34
2022-12-16T11:23:02.610Z,67.68
2022-12-16T11:28:31.304Z,68.51
2022-12-16T11:33:55.197Z,68.62
2022-12-16T11:39:21.339Z,68.17
2022-12-16T11:44:50.731Z,68.43
2022-12-16T11:50:17.458Z,68.14
2022-12-16T12:01:20.740Z,68.65
2022-12-16T12:07:11.376Z,68.04
2022-12-16T12:12:46.610Z,68.62
2022-12-16T12:18:41.611Z,68.71
2022-12-16T12:24:17.021Z,68.05
2022-12-16T12:29:55.186Z,68.44
2022-12-16T12:35:42.109Z,68.47
2022-12-16T12:41:11.110Z,68.46
2022-12-16T12:46:58.300Z,68.20
2022-12-16T12:52:39.339Z,68.36
2022-12-16T12:58:05.601Z,68.33
2022-12-16T13:03:57.691Z,68.30
2022-12-16T13:09:22.085Z,68.23
2022-12-16T13:14:54.196Z,68.18
2022-12-16T13:20:19.114Z,68.29
2022-12-16T13:26:03.731Z,68.38
2022-12-16T13:31:28.902Z,68.03
2022-12-16T13:36:55.812Z,68.14
2022-12-16T13:42:20.002Z,68.21
2022-12-16T13:48:01.281Z,68.57
2022-12-16T13:53:20.089Z,68.01
2022-12-16T13:58:48.980Z,68.20
2022-12-16T14:04:13.764Z,68.15
2022-12-16T14:10:03.299Z,68.30
2022-12-16T14:15:29.887Z,68.20
2022-12-16T14:20:55.969Z,68.19
2022-12-16T14:26:20.999Z,68.17
2022-12-16T14:31:53.151Z,68.06
2022-12-16T14:37:19.311Z,67.86
2022-12-16T14:42:43.267Z,67.60
2022-12-16T14:48:06.826Z,68.08
2022-12-16T14:53:41.489Z,68.06
2022-12-16T14:59:00.582Z,68.05
2022-12-16T15:04:27.130Z,68.21
2022-12-16T15:09:56.527Z,68.34
2022-12-16T15:15:22.238Z,68.21
2022-12-16T15:20:48.545Z,68.37
2022-12-16T15:26:14.920Z,68.37
2022-12-16T15:31:44.271Z,68.39
2022-12-16T15:37:07.899Z,68.51
2022-12-16T15:42:40.672Z,68.57
2022-12-16T15:48:06.938Z,68.39
2022-12-16T15:53:51.629Z,68.25
2022-12-16T15:59:18.160Z,68.44
2022-12-16T16:04:48.855Z,68.20
2022-12-16T16:10:14.951Z,68.53
2022-12-16T16:15:38.457Z,68.58
2022-12-16T16:21:02.318Z,68.17
2022-12-16T16:26:27.015Z,68.19
2022-12-16T16:31:50.389Z,68.73
2022-12-16T16:37:16.622Z,68.69
2022-12-16T16:42:40.930Z,68.92
2022-12-16T16:48:03.025Z,68.94
2022-12-16T16:53:29.601Z,68.84
2022-12-16T16:58:54.223Z,69.05
2022-12-16T17:04:18.332Z,69.01
2022-12-16T17:09:41.920Z,69.06
2022-12-16T17:15:05.456Z,69.12
2022-12-16T17:20:34.062Z,69.12
2022-12-16T17:25:57.490Z,69.29
2022-12-16T17:31:20.951Z,69.27
2022-12-16T17:36:44.776Z,69.33
2022-12-16T17:42:09.688Z,69.65
2022-12-16T17:53:14.033Z,69.75
2022-12-16T17:58:37.138Z,69.79
2022-12-16T18:04:01.501Z,69.91
2022-12-16T18:09:25.072Z,70.19
2022-12-16T18:14:48.448Z,70.17
2022-12-16T18:20:11.629Z,70.19
2022-12-16T18:25:35.483Z,70.09
2022-12-16T18:30:59.181Z,69.87
2022-12-16T18:36:22.829Z,70.19
2022-12-16T18:41:46.376Z,70.31
2022-12-16T18:47:10.023Z,70.32
2022-12-16T18:52:33.206Z,70.34
2022-12-16T18:57:56.823Z,70.38
2022-12-16T19:03:20.281Z,70.32
2022-12-16T19:08:30.005Z,70.34
2022-12-16T19:13:53.536Z,70.45
2022-12-16T19:19:20.195Z,70.39
2022-12-16T19:24:42.514Z,70.29
2022-12-16T19:30:06.236Z,66.42
2022-12-16T19:35:29.697Z,68.75
2022-12-16T19:40:53.750Z,69.44
2022-12-16T19:46:17.633Z,69.65
2022-12-16T19:51:41.417Z,68.58
2022-12-16T19:57:04.705Z,69.69
2022-12-16T20:02:31.347Z,69.67
2022-12-16T20:07:56.285Z,70.00
2022-12-16T20:13:24.957Z,69.95
2022-12-16T20:18:45.404Z,69.93
2022-12-16T20:24:08.848Z,70.13
2022-12-16T20:29:32.815Z,69.95
2022-12-16T20:34:56.510Z,70.21
2022-12-16T20:40:19.939Z,70.14
2022-12-16T20:45:43.361Z,66.94
2022-12-16T20:51:18.563Z,68.92
2022-12-16T20:56:40.928Z,69.48
2022-12-16T21:07:29.457Z,69.46
2022-12-16T21:12:52.727Z,69.57
2022-12-16T21:18:19.357Z,69.53
2022-12-16T21:23:43.181Z,69.70
2022-12-16T21:29:07.345Z,69.73
2022-12-16T21:34:31.063Z,69.57
2022-12-16T21:39:54.670Z,69.59
2022-12-16T21:45:18.268Z,69.59
2022-12-16T21:50:41.660Z,69.51
2022-12-16T21:56:12.912Z,69.44
2022-12-16T22:01:36.562Z,69.49
2022-12-16T22:06:59.850Z,69.50
2022-12-16T22:12:23.481Z,69.47
2022-12-16T22:17:46.951Z,69.53
2022-12-16T22:23:10.218Z,69.59
2022-12-16T22:28:33.513Z,69.53
2022-12-16T22:33:57.402Z,69.61
2022-12-16T22:39:20.536Z,69.53
2022-12-16T22:44:44.068Z,69.52
2022-12-16T22:50:07.698Z,69.64
2022-12-16T22:55:31.184Z,69.72
2022-12-16T23:00:56.397Z,69.82
2022-12-16T23:06:19.929Z,69.87
2022-12-16T23:11:52.789Z,69.75
2022-12-16T23:17:17.829Z,69.81
2022-12-16T23:22:41.373Z,69.67
2022-12-16T23:28:05.093Z,69.86
2022-12-16T23:33:28.649Z,69.88
2022-12-16T23:38:52.306Z,69.72
2022-12-16T23:44:16.560Z,69.78
2022-12-16T23:49:39.844Z,69.89
2022-12-16T23:55:03.289Z,69.87
